Preview of NWS' New Version of Forecast
This preview is not operational and should not be used for support decisions.

Terminal Aerodrome Forecast (TAF)

Issued by National Weather Service (NWS)

                            
000
FTUS42 KKEY 241452 AAA
TAFEYW
TAF AMD
KEYW 241452Z 2415/2512 09012G20KT P6SM FEW030 SCT050
     FM250200 08008KT P6SM FEW030 SCT050=